Time;durP1;ratioP1;P1;durP2;ratioP2;P2;SDS_P1;SDS_P2;PMS_P1;PMS_P2;Temp;Humidity;BMP_temperature;BMP_pressure;BME280_temperature;BME280_humidity;BME280_pressure;Samples;Min_cycle;Max_cycle;Signal;HPM_P1;HPM_P2
2022/07/27 00:01:53;;;;;;;4.47;1.70;;;;;;;15.51;65.26;101958.72;4989220;28;20033;-71
2022/07/27 00:04:19;;;;;;;4.75;1.50;;;;;;;15.44;65.69;101958.59;4989813;28;20440;-71
2022/07/27 00:06:44;;;;;;;6.10;1.60;;;;;;;15.41;65.69;101955.00;4991167;28;20501;-71
2022/07/27 00:09:10;;;;;;;4.63;1.67;;;;;;;15.36;65.90;101948.78;4990807;28;20041;-71
2022/07/27 00:11:35;;;;;;;4.43;1.80;;;;;;;15.34;66.49;101954.00;4990820;28;20072;-71
2022/07/27 00:14:00;;;;;;;7.28;3.03;;;;;;;15.33;66.28;101949.59;4987280;28;20421;-71
2022/07/27 00:16:26;;;;;;;2.72;1.38;;;;;;;15.28;66.11;101952.13;4991061;28;20489;-71
2022/07/27 00:18:51;;;;;;;4.40;1.70;;;;;;;15.24;66.17;101945.03;4990911;28;20037;-71
2022/07/27 00:21:16;;;;;;;4.03;1.40;;;;;;;15.22;66.23;101953.72;4990500;28;20550;-71
2022/07/27 00:23:42;;;;;;;4.00;1.40;;;;;;;15.18;65.92;101950.16;4988538;28;20541;-71
2022/07/27 00:26:07;;;;;;;2.72;1.30;;;;;;;15.11;66.50;101945.63;4990019;28;20038;-71
2022/07/27 00:28:33;;;;;;;2.78;1.40;;;;;;;15.03;66.84;101950.66;4987971;28;20030;-71
2022/07/27 00:30:58;;;;;;;3.75;1.52;;;;;;;14.99;66.82;101950.56;4989834;28;20025;-70
2022/07/27 00:33:23;;;;;;;5.13;1.40;;;;;;;14.95;66.76;101957.50;4990182;28;20033;-71
2022/07/27 00:35:49;;;;;;;4.30;1.80;;;;;;;14.91;66.75;101951.28;4991130;28;20030;-71
2022/07/27 00:38:15;;;;;;;5.25;1.60;;;;;;;14.85;67.00;101945.91;4972014;28;20026;-71
2022/07/27 00:40:40;;;;;;;4.35;1.50;;;;;;;14.81;66.97;101951.91;4989112;28;20050;-71
2022/07/27 00:43:06;;;;;;;7.05;1.42;;;;;;;14.81;67.12;101953.66;4988990;28;20121;-71
2022/07/27 00:45:31;;;;;;;4.55;1.65;;;;;;;14.77;67.29;101943.09;4990151;28;20057;-71
2022/07/27 00:47:57;;;;;;;4.30;1.60;;;;;;;14.76;67.08;101951.81;4990846;28;20033;-71
2022/07/27 00:50:22;;;;;;;5.28;2.20;;;;;;;14.75;67.11;101949.16;4988560;28;20022;-71
2022/07/27 00:52:48;;;;;;;4.80;1.83;;;;;;;14.72;67.15;101947.34;4991149;28;20022;-71
2022/07/27 00:55:14;;;;;;;3.75;1.80;;;;;;;14.71;67.25;101955.16;4989452;28;20552;-71
2022/07/27 00:57:41;;;;;;;5.97;2.05;;;;;;;14.68;67.08;101948.09;4989360;28;20064;-71
2022/07/27 01:00:07;;;;;;;6.93;2.20;;;;;;;14.66;67.49;101948.94;4986797;28;20458;-71
2022/07/27 01:02:32;;;;;;;7.18;2.50;;;;;;;14.64;67.45;101948.88;4987973;28;20038;-71
2022/07/27 01:04:58;;;;;;;4.57;2.13;;;;;;;14.63;67.40;101947.13;4990517;28;20465;-71
2022/07/27 01:07:24;;;;;;;4.93;1.98;;;;;;;14.60;67.25;101949.63;4988942;28;20445;-71
2022/07/27 01:09:56;;;;;;;4.38;1.85;;;;;;;14.60;66.94;101945.28;4985146;28;20033;-71
2022/07/27 01:12:23;;;;;;;4.00;1.88;;;;;;;14.57;66.82;101942.56;4990197;28;20034;-71
2022/07/27 01:14:50;;;;;;;4.40;1.73;;;;;;;14.55;67.14;101948.63;4990719;28;20030;-71
2022/07/27 01:17:16;;;;;;;3.60;2.00;;;;;;;14.51;66.98;101945.06;4988146;28;20042;-71
2022/07/27 01:19:42;;;;;;;6.15;2.25;;;;;;;14.50;66.87;101951.13;4989065;28;20489;-71
2022/07/27 01:22:08;;;;;;;6.20;2.58;;;;;;;14.47;66.81;101944.91;4988932;28;20026;-71
2022/07/27 01:24:34;;;;;;;3.67;2.00;;;;;;;14.45;67.17;101939.63;4970325;28;20054;-71
2022/07/27 01:27:01;;;;;;;5.30;2.00;;;;;;;14.41;66.97;101949.16;4990005;28;20478;-71
2022/07/27 01:29:27;;;;;;;6.65;2.33;;;;;;;14.39;67.03;101947.34;4988523;28;20026;-71
2022/07/27 01:31:52;;;;;;;4.82;2.10;;;;;;;14.37;67.03;101949.06;4989120;28;20489;-71
2022/07/27 01:34:18;;;;;;;4.68;2.35;;;;;;;14.34;66.92;101951.56;4971253;28;20101;-71
2022/07/27 01:36:44;;;;;;;5.45;2.40;;;;;;;14.31;67.25;101951.50;4988867;28;20560;-71
2022/07/27 01:39:10;;;;;;;6.18;2.20;;;;;;;14.24;67.45;101950.47;4988622;28;20057;-71
2022/07/27 01:41:36;;;;;;;3.88;1.83;;;;;;;14.19;67.75;101947.75;4988468;28;20433;-71
2022/07/27 01:44:01;;;;;;;3.88;1.80;;;;;;;14.11;67.26;101948.34;4987466;28;20024;-71
2022/07/27 01:46:26;;;;;;;5.25;2.05;;;;;;;14.04;67.66;101948.19;4988852;28;20482;-71
2022/07/27 01:48:51;;;;;;;5.88;2.38;;;;;;;13.98;67.60;101948.03;4990341;28;20041;-71
2022/07/27 01:51:17;;;;;;;4.57;1.90;;;;;;;13.91;67.94;101946.09;4983900;28;20455;-71
2022/07/27 01:53:42;;;;;;;4.25;1.80;;;;;;;13.85;67.85;101940.69;4989006;28;20111;-71
2022/07/27 01:56:11;;;;;;;4.57;2.00;;;;;;;13.79;68.01;101938.78;4989465;28;20041;-71
2022/07/27 01:58:37;;;;;;;4.80;1.95;;;;;;;13.75;68.26;101942.16;4990248;28;20050;-71
2022/07/27 02:01:03;;;;;;;6.22;2.20;;;;;;;13.71;68.51;101937.66;4987697;28;20112;-71
2022/07/27 02:03:29;;;;;;;5.47;2.25;;;;;;;13.68;68.67;101935.84;4988762;28;20747;-71
2022/07/27 02:05:54;;;;;;;5.38;2.17;;;;;;;13.68;68.11;101938.47;4985395;28;20109;-71
2022/07/27 02:08:19;;;;;;;4.22;1.67;;;;;;;13.67;68.15;101936.72;4988560;28;20477;-71
2022/07/27 02:13:29;;;;;;;4.55;1.90;;;;;;;13.58;68.11;101931.19;4988842;28;20041;-71
2022/07/27 02:15:55;;;;;;;4.22;2.17;;;;;;;13.53;68.46;101932.81;4988030;28;20019;-71
2022/07/27 02:18:21;;;;;;;4.88;2.20;;;;;;;13.49;68.57;101936.19;4987463;28;20027;-71
2022/07/27 02:20:46;;;;;;;4.47;2.00;;;;;;;13.44;68.58;101935.13;4988739;28;20032;-70
2022/07/27 02:23:11;;;;;;;3.60;1.92;;;;;;;13.41;68.54;101930.69;4987961;28;20068;-71
2022/07/27 02:25:37;;;;;;;4.35;2.35;;;;;;;13.37;68.52;101929.72;4989947;28;20038;-71
2022/07/27 02:28:02;;;;;;;5.63;2.35;;;;;;;13.36;68.59;101930.56;4987463;28;20490;-71
2022/07/27 02:30:28;;;;;;;5.18;2.20;;;;;;;13.33;68.65;101934.81;4971129;28;20042;-70
2022/07/27 02:32:53;;;;;;;3.85;1.98;;;;;;;13.27;68.53;101919.78;4988702;28;20058;-71
2022/07/27 02:35:18;;;;;;;5.13;1.98;;;;;;;13.22;68.93;101922.28;4989068;28;20022;-71
2022/07/27 02:37:44;;;;;;;4.53;2.05;;;;;;;13.17;68.63;101920.38;4988940;28;20037;-71
2022/07/27 02:40:10;;;;;;;4.20;2.08;;;;;;;13.14;68.57;101933.38;4987618;28;20053;-71
2022/07/27 02:42:36;;;;;;;4.82;1.88;;;;;;;13.09;68.32;101922.72;4987546;28;20058;-71
2022/07/27 02:45:02;;;;;;;3.88;1.70;;;;;;;13.06;68.58;101927.88;4969886;28;20034;-71
2022/07/27 02:47:27;;;;;;;3.65;1.98;;;;;;;13.03;69.10;101925.16;4989307;28;20037;-71
2022/07/27 02:49:53;;;;;;;5.40;1.98;;;;;;;12.99;69.38;101918.97;4988237;28;20038;-71
2022/07/27 02:52:18;;;;;;;5.22;1.80;;;;;;;12.94;69.37;101923.16;4988426;28;20029;-71
2022/07/27 02:54:43;;;;;;;4.15;1.90;;;;;;;12.90;68.98;101925.63;4989604;28;20026;-70
2022/07/27 02:57:09;;;;;;;6.22;2.13;;;;;;;12.85;69.24;101930.72;4991226;28;20064;-71
2022/07/27 02:59:34;;;;;;;4.43;1.90;;;;;;;12.82;68.59;101926.28;4992869;28;20030;-71
2022/07/27 03:01:59;;;;;;;4.70;2.40;;;;;;;12.81;69.24;101919.25;4991875;28;20057;-71
2022/07/27 03:04:25;;;;;;;4.55;1.77;;;;;;;12.81;68.95;101914.03;4991803;28;20074;-71
2022/07/27 03:06:51;;;;;;;4.65;2.00;;;;;;;12.81;69.25;101918.38;4990547;28;20026;-71
2022/07/27 03:09:16;;;;;;;4.63;2.10;;;;;;;12.78;68.71;101927.00;4973788;28;20038;-71
2022/07/27 03:11:41;;;;;;;3.90;1.98;;;;;;;12.80;69.28;101927.97;4993205;28;20034;-71
2022/07/27 03:14:07;;;;;;;4.03;1.88;;;;;;;12.79;69.20;101925.28;4989791;28;20027;-70
2022/07/27 03:16:32;;;;;;;5.00;1.88;;;;;;;12.79;69.18;101935.72;4992081;28;20049;-71
2022/07/27 03:18:57;;;;;;;4.05;2.03;;;;;;;12.77;69.20;101932.19;4990083;28;20027;-70
2022/07/27 03:21:23;;;;;;;5.78;2.25;;;;;;;12.72;69.15;101934.66;4992361;28;20441;-70
2022/07/27 03:23:49;;;;;;;6.85;2.58;;;;;;;12.65;69.83;101933.56;4992602;28;20030;-71
2022/07/27 03:26:16;;;;;;;4.93;2.25;;;;;;;12.61;69.78;101938.66;4991250;28;20022;-71
2022/07/27 03:28:42;;;;;;;5.13;2.47;;;;;;;12.59;69.68;101930.75;4988248;28;20050;-71
2022/07/27 03:31:07;;;;;;;4.65;2.05;;;;;;;12.56;69.93;101937.59;4992374;28;20029;-71
2022/07/27 03:33:33;;;;;;;6.32;2.63;;;;;;;12.53;69.69;101923.59;4992277;28;20101;-71
2022/07/27 03:35:58;;;;;;;4.40;2.22;;;;;;;12.48;69.81;101929.53;4990015;28;20034;-71
2022/07/27 03:38:24;;;;;;;4.30;2.38;;;;;;;12.48;69.61;101934.75;4988882;28;20026;-71
2022/07/27 03:40:49;;;;;;;4.38;2.20;;;;;;;12.45;69.65;101939.88;4991032;28;20078;-71
2022/07/27 03:43:14;;;;;;;4.80;2.33;;;;;;;12.42;69.92;101932.81;4991694;28;20030;-71
2022/07/27 03:45:40;;;;;;;4.95;2.10;;;;;;;12.39;69.96;101937.06;4988822;28;20484;-71
2022/07/27 03:48:05;;;;;;;4.03;2.20;;;;;;;12.37;69.93;101939.63;4989489;28;20057;-71
2022/07/27 03:50:30;;;;;;;4.88;2.28;;;;;;;12.34;69.97;101940.41;4991226;28;20117;-71
2022/07/27 03:52:56;;;;;;;4.88;2.47;;;;;;;12.33;70.03;101946.47;4992621;28;20057;-71
2022/07/27 03:55:21;;;;;;;5.68;2.55;;;;;;;12.32;70.37;101943.78;4989985;28;20425;-71
2022/07/27 03:57:47;;;;;;;4.43;2.20;;;;;;;12.31;71.00;101939.41;4991309;28;20037;-71
2022/07/27 04:00:14;;;;;;;5.43;2.70;;;;;;;12.31;71.03;101942.00;4991356;28;20023;-71
2022/07/27 04:02:40;;;;;;;5.22;2.55;;;;;;;12.26;71.66;101944.47;4991161;28;20030;-71
2022/07/27 04:05:06;;;;;;;3.70;2.05;;;;;;;12.25;72.05;101944.41;4990005;28;20029;-71
2022/07/27 04:07:31;;;;;;;6.90;2.58;;;;;;;12.24;72.57;101946.16;4988410;28;20490;-71
2022/07/27 04:09:57;;;;;;;6.40;2.80;;;;;;;12.23;72.53;101946.97;4990855;28;20057;-71
2022/07/27 04:12:22;;;;;;;6.15;2.42;;;;;;;12.25;72.87;101945.34;4991838;28;20544;-71
2022/07/27 04:14:47;;;;;;;5.72;2.70;;;;;;;12.27;73.00;101941.03;4991639;28;20026;-71
2022/07/27 04:17:13;;;;;;;6.05;2.70;;;;;;;12.29;73.22;101941.97;4989876;28;20417;-71
2022/07/27 04:19:38;;;;;;;5.32;2.80;;;;;;;12.29;73.64;101944.56;4989614;28;20568;-71
2022/07/27 04:22:04;;;;;;;5.78;3.00;;;;;;;12.30;73.51;101943.75;4973508;28;20041;-71
2022/07/27 04:24:29;;;;;;;4.32;2.60;;;;;;;12.31;73.76;101945.53;4991026;28;20018;-71
2022/07/27 04:26:54;;;;;;;6.72;3.03;;;;;;;12.31;73.49;101944.63;4989467;28;20026;-70
2022/07/27 04:29:20;;;;;;;4.15;2.33;;;;;;;12.31;74.46;101942.00;4988505;28;20085;-71
2022/07/27 04:31:45;;;;;;;4.95;2.58;;;;;;;12.30;74.82;101946.34;4990774;28;20022;-71
2022/07/27 04:34:10;;;;;;;5.45;2.50;;;;;;;12.29;74.60;101951.53;4988660;28;20025;-71
2022/07/27 04:36:37;;;;;;;5.07;2.55;;;;;;;12.28;74.42;101944.53;4987821;28;20034;-71
2022/07/27 04:39:02;;;;;;;4.63;2.60;;;;;;;12.29;74.85;101944.56;4990911;28;20049;-71
2022/07/27 04:41:28;;;;;;;4.72;2.70;;;;;;;12.28;75.82;101949.75;4989718;28;20504;-71
2022/07/27 04:43:53;;;;;;;4.13;2.40;;;;;;;12.29;75.89;101955.03;4990952;28;20034;-71
2022/07/27 04:46:18;;;;;;;6.45;2.92;;;;;;;12.28;76.74;101957.59;4989354;28;20096;-71
2022/07/27 04:48:43;;;;;;;5.63;2.58;;;;;;;12.30;76.87;101953.31;4990349;28;20030;-71
2022/07/27 04:51:13;;;;;;;6.57;2.95;;;;;;;12.30;76.96;101955.94;4990026;28;20045;-71
2022/07/27 04:53:39;;;;;;;5.28;2.78;;;;;;;12.32;76.88;101957.75;4990971;28;20022;-71
2022/07/27 04:56:04;;;;;;;6.85;2.78;;;;;;;12.33;77.00;101956.03;4990725;28;20028;-71
2022/07/27 04:58:30;;;;;;;5.95;3.08;;;;;;;12.35;76.88;101964.81;4990263;28;20054;-71
2022/07/27 05:00:55;;;;;;;7.85;3.15;;;;;;;12.39;76.56;101965.81;4990642;28;20030;-71
2022/07/27 05:03:20;;;;;;;6.60;3.00;;;;;;;12.40;76.93;101970.19;4988619;28;20034;-71
2022/07/27 05:05:45;;;;;;;7.45;2.67;;;;;;;12.40;76.89;101964.97;4987730;28;20033;-71
2022/07/27 05:08:11;;;;;;;6.90;3.08;;;;;;;12.43;76.70;101968.56;4987449;28;20072;-71
2022/07/27 05:10:36;;;;;;;6.88;3.03;;;;;;;12.44;76.71;101967.75;4990334;28;20049;-71
2022/07/27 05:13:02;;;;;;;5.45;3.22;;;;;;;12.45;77.15;101972.13;4990713;28;20025;-70
2022/07/27 05:15:27;;;;;;;6.07;3.30;;;;;;;12.48;77.57;101972.25;4989823;28;20042;-70
2022/07/27 05:17:53;;;;;;;5.55;3.15;;;;;;;12.51;77.68;101971.44;4971843;28;20037;-70
2022/07/27 05:20:18;;;;;;;5.80;3.55;;;;;;;12.54;77.76;101971.53;4989040;28;20030;-71
2022/07/27 05:22:43;;;;;;;7.75;3.67;;;;;;;12.55;77.55;101975.94;4989444;28;20489;-70
2022/07/27 05:25:09;;;;;;;7.47;3.40;;;;;;;12.59;77.95;101976.94;4990532;28;20390;-70
2022/07/27 05:27:36;;;;;;;10.05;3.55;;;;;;;12.60;77.77;101986.53;4986062;28;20026;-70
2022/07/27 05:30:03;;;;;;;6.03;3.00;;;;;;;12.61;77.99;101983.97;4989625;28;20069;-71
2022/07/27 05:32:28;;;;;;;8.07;4.40;;;;;;;12.65;78.45;101985.00;4987242;28;20072;-71
2022/07/27 05:34:54;;;;;;;5.93;3.72;;;;;;;12.67;78.33;101991.16;4988058;28;20022;-70
2022/07/27 05:37:19;;;;;;;6.10;3.85;;;;;;;12.69;78.52;101994.72;4989263;28;20030;-71
2022/07/27 05:39:44;;;;;;;7.60;4.10;;;;;;;12.70;79.26;101992.16;4990160;28;20387;-71
2022/07/27 05:42:10;;;;;;;9.55;4.18;;;;;;;12.73;79.80;101994.00;4990910;28;20034;-71
2022/07/27 05:44:35;;;;;;;9.18;4.65;;;;;;;12.75;80.05;101981.84;4988696;28;20034;-71
2022/07/27 05:47:00;;;;;;;7.82;4.10;;;;;;;12.78;79.91;101981.06;4987382;28;20030;-71
2022/07/27 05:49:26;;;;;;;8.05;4.40;;;;;;;12.80;80.11;101981.97;4986555;28;20141;-71
2022/07/27 05:51:51;;;;;;;7.40;4.75;;;;;;;12.84;80.54;101984.75;4988995;28;20022;-71
2022/07/27 05:54:17;;;;;;;10.27;4.90;;;;;;;12.86;81.08;101985.69;4989356;28;20109;-71
2022/07/27 05:56:43;;;;;;;9.30;4.93;;;;;;;12.90;81.29;101999.75;4989772;28;20509;-71
2022/07/27 05:59:08;;;;;;;8.52;4.65;;;;;;;12.93;81.43;101989.38;4985892;28;20018;-71
2022/07/27 06:01:34;;;;;;;7.70;4.18;;;;;;;12.98;80.56;101994.78;4989477;28;20034;-70
2022/07/27 06:03:59;;;;;;;9.48;4.72;;;;;;;13.02;80.69;101997.56;4990281;28;20026;-71
2022/07/27 06:09:08;;;;;;;8.55;4.40;;;;;;;13.12;81.52;102005.69;4988570;28;20097;-71
2022/07/27 06:11:35;;;;;;;7.50;3.90;;;;;;;13.17;80.82;102006.72;4988425;28;20022;-70
2022/07/27 06:14:01;;;;;;;8.60;4.50;;;;;;;13.21;80.79;102003.38;4986971;28;20379;-71
2022/07/27 06:16:26;;;;;;;6.75;4.07;;;;;;;13.28;80.91;102004.44;4989662;28;20057;-70
2022/07/27 06:18:51;;;;;;;8.07;3.80;;;;;;;13.32;81.05;101998.47;4988146;28;20042;-71
2022/07/27 06:21:16;;;;;;;7.13;3.50;;;;;;;13.37;80.55;101992.56;4987860;28;20089;-71
2022/07/27 06:23:42;;;;;;;5.63;3.30;;;;;;;13.45;80.70;102000.63;4986145;28;20030;-71
2022/07/27 06:26:08;;;;;;;5.85;2.90;;;;;;;13.52;80.76;101999.09;4990295;28;20080;-71
2022/07/27 06:28:33;;;;;;;6.13;2.55;;;;;;;13.60;79.91;102001.94;4990236;28;20026;-70
2022/07/27 06:30:59;;;;;;;5.90;2.70;;;;;;;13.65;79.87;102003.84;4992105;28;20081;-70
2022/07/27 06:33:27;;;;;;;5.93;2.28;;;;;;;13.71;79.39;102004.03;4991632;28;20050;-70
2022/07/27 06:35:54;;;;;;;5.87;3.53;;;;;;;13.79;79.48;102003.38;4994343;28;20343;-70
2022/07/27 06:38:20;;;;;;;7.32;3.40;;;;;;;13.88;79.02;102001.03;4991396;28;20089;-71
2022/07/27 06:40:51;;;;;;;5.57;2.13;;;;;;;13.97;78.56;101998.66;4989487;28;20054;-70
2022/07/27 06:43:16;;;;;;;5.22;2.20;;;;;;;14.06;78.82;102001.56;4991113;28;20069;-70
2022/07/27 06:45:42;;;;;;;5.50;1.70;;;;;;;14.13;76.54;101999.97;4991553;28;20062;-70
2022/07/27 06:48:07;;;;;;;6.05;1.90;;;;;;;14.21;77.48;102000.19;4990662;28;20053;-70
2022/07/27 06:50:32;;;;;;;4.55;1.60;;;;;;;14.29;77.36;102003.91;4993145;28;20485;-71
2022/07/27 06:52:57;;;;;;;5.43;1.70;;;;;;;14.36;75.92;102005.84;4993252;28;20049;-71
2022/07/27 06:55:23;;;;;;;4.70;1.80;;;;;;;14.44;75.89;102004.31;4993988;28;20209;-71
2022/07/27 06:57:48;;;;;;;5.78;1.60;;;;;;;14.53;75.51;102008.03;4992426;28;20061;-71
2022/07/27 07:00:14;;;;;;;3.60;1.60;;;;;;;14.62;75.29;102010.91;4988883;28;20397;-71
2022/07/27 07:02:50;;;;;;;5.22;1.70;;;;;;;14.72;75.15;102004.19;4992342;28;20402;-63
2022/07/27 07:05:15;;;;;;;4.65;1.70;;;;;;;14.80;76.30;102001.72;4990648;28;20553;-63
2022/07/27 07:07:41;;;;;;;4.32;1.65;;;;;;;14.88;75.15;102011.56;4991761;28;20030;-66
2022/07/27 07:10:07;;;;;;;5.32;1.88;;;;;;;14.96;74.76;102017.00;4991263;28;20034;-66
2022/07/27 07:12:32;;;;;;;5.70;1.70;;;;;;;15.01;74.12;102019.75;4992617;28;20088;-66
2022/07/27 07:14:57;;;;;;;4.90;1.83;;;;;;;15.06;73.91;102026.91;4992923;28;20022;-66
2022/07/27 07:17:22;;;;;;;5.10;1.90;;;;;;;15.13;74.50;102020.03;4992596;28;20093;-66
2022/07/27 07:19:48;;;;;;;6.15;1.90;;;;;;;15.20;73.38;102018.44;4974842;28;20034;-66
2022/07/27 07:22:13;;;;;;;8.02;2.10;;;;;;;15.25;73.26;102022.06;4992514;28;20038;-66
2022/07/27 07:24:38;;;;;;;4.88;1.73;;;;;;;15.29;73.41;102019.56;4993260;28;20026;-66
2022/07/27 07:27:04;;;;;;;4.85;2.03;;;;;;;15.36;74.04;102012.69;4992506;28;20157;-66
2022/07/27 07:29:29;;;;;;;4.18;1.65;;;;;;;15.44;74.38;102012.88;4993308;28;20023;-66
2022/07/27 07:31:54;;;;;;;5.15;1.70;;;;;;;15.52;73.88;102013.91;4993367;28;20030;-66
2022/07/27 07:34:20;;;;;;;7.35;2.28;;;;;;;15.61;73.78;102021.09;4992991;28;20018;-66
2022/07/27 07:36:46;;;;;;;5.70;2.03;;;;;;;15.67;72.41;102018.63;4992276;28;20093;-66
2022/07/27 07:39:12;;;;;;;5.60;1.88;;;;;;;15.72;71.40;102021.34;4987441;28;20417;-65
2022/07/27 07:41:37;;;;;;;7.70;2.30;;;;;;;15.75;71.65;102024.91;4993163;28;20493;-66
2022/07/27 07:44:02;;;;;;;4.70;2.08;;;;;;;15.78;71.18;102024.09;4992853;28;20030;-66
2022/07/27 07:46:28;;;;;;;5.35;1.80;;;;;;;15.81;71.24;102030.38;4993226;28;20029;-66
2022/07/27 07:48:53;;;;;;;5.35;1.88;;;;;;;15.82;71.06;102028.63;4992068;28;20040;-65
2022/07/27 07:51:19;;;;;;;5.93;2.15;;;;;;;15.87;70.94;102032.19;4992792;28;20026;-66
2022/07/27 07:53:44;;;;;;;6.25;2.00;;;;;;;15.93;71.57;102032.34;4992966;28;20030;-66
2022/07/27 07:56:09;;;;;;;6.45;2.33;;;;;;;16.02;71.55;102020.22;4975208;28;20022;-66
2022/07/27 07:58:35;;;;;;;5.32;2.00;;;;;;;16.13;72.36;102029.22;4992085;28;20111;-66
2022/07/27 08:01:00;;;;;;;5.25;2.10;;;;;;;16.24;69.93;102024.19;4992943;28;20539;-66
2022/07/27 08:03:25;;;;;;;4.57;1.90;;;;;;;16.37;70.58;102033.19;4992569;28;20026;-66
2022/07/27 08:05:51;;;;;;;6.93;2.30;;;;;;;16.47;68.86;102030.75;4991860;28;20490;-66
2022/07/27 08:08:16;;;;;;;5.20;2.20;;;;;;;16.61;68.69;102032.75;4991894;28;20486;-66
2022/07/27 08:10:42;;;;;;;6.13;1.80;;;;;;;16.70;67.33;102035.56;4992436;28;20038;-66
2022/07/27 08:13:07;;;;;;;6.13;1.83;;;;;;;16.72;66.63;102038.22;4991570;28;20022;-66
2022/07/27 08:15:33;;;;;;;6.00;1.90;;;;;;;16.82;67.60;102041.00;4990309;28;20030;-66
2022/07/27 08:17:58;;;;;;;7.15;2.10;;;;;;;16.92;66.44;102047.34;4992652;28;20386;-66
2022/07/27 08:20:27;;;;;;;7.40;2.17;;;;;;;16.97;66.89;102052.69;4992400;28;20481;-65
2022/07/27 08:22:52;;;;;;;5.97;2.20;;;;;;;16.99;66.16;102043.97;4992462;28;20062;-66
2022/07/27 08:25:18;;;;;;;3.75;2.00;;;;;;;17.02;65.07;102037.88;4991457;28;20510;-65
2022/07/27 08:27:43;;;;;;;6.78;1.95;;;;;;;17.01;64.50;102031.69;4992247;28;20509;-65
2022/07/27 08:30:09;;;;;;;4.50;2.20;;;;;;;17.02;65.58;102035.25;4992580;28;20508;-65
2022/07/27 08:32:54;;;;;;;4.75;1.52;;;;;;;17.05;66.04;102037.91;4990346;28;20043;-65
2022/07/27 08:35:20;;;;;;;5.63;1.67;;;;;;;17.03;64.68;102030.00;4987337;28;20019;-65
2022/07/27 08:37:45;;;;;;;4.95;1.95;;;;;;;17.06;65.36;102028.25;4992194;28;20081;-65
2022/07/27 08:40:12;;;;;;;5.68;1.80;;;;;;;17.15;66.19;102034.56;4990241;28;20505;-65
2022/07/27 08:42:40;;;;;;;7.28;2.33;;;;;;;17.24;64.53;102036.44;4979844;28;20030;-65
2022/07/27 08:45:08;;;;;;;4.57;2.10;;;;;;;17.33;65.05;102030.44;4992019;28;20045;-65
2022/07/27 08:47:35;;;;;;;4.47;1.85;;;;;;;17.32;62.62;102019.03;4990925;28;20449;-66
2022/07/27 08:50:02;;;;;;;6.80;2.17;;;;;;;17.32;63.75;102034.81;4986005;28;20081;-66
2022/07/27 08:52:27;;;;;;;5.32;1.98;;;;;;;17.32;63.94;102033.91;4990893;28;20109;-66
2022/07/27 08:54:53;;;;;;;3.75;1.50;;;;;;;17.35;63.47;102031.31;4991765;28;20022;-66
2022/07/27 08:57:18;;;;;;;4.80;1.85;;;;;;;17.43;62.23;102029.69;4991238;28;20485;-66
2022/07/27 08:59:43;;;;;;;6.68;1.73;;;;;;;17.50;62.80;102033.31;4991722;28;20441;-66
2022/07/27 09:02:11;;;;;;;5.57;1.80;;;;;;;17.59;63.42;102032.56;4990289;28;20101;-66
2022/07/27 09:04:39;;;;;;;4.90;2.00;;;;;;;17.65;62.27;102036.16;4991617;28;20030;-66
2022/07/27 09:07:04;;;;;;;4.28;1.58;;;;;;;17.74;59.96;102040.66;4991946;28;20124;-66
2022/07/27 09:09:43;;;;;;;6.00;1.65;;;;;;;17.82;59.78;102038.13;4991440;28;20486;-66
2022/07/27 09:12:10;;;;;;;7.10;2.15;;;;;;;17.92;61.32;102032.13;4989697;28;20481;-66
2022/07/27 09:14:37;;;;;;;4.13;1.73;;;;;;;18.04;59.02;102032.28;4990858;28;20536;-66
2022/07/27 09:17:24;;;;;;;5.13;1.90;;;;;;;18.22;61.80;102036.88;4990377;28;20030;-66
2022/07/27 09:19:58;;;;;;;6.20;1.70;;;;;;;18.28;57.97;102036.06;4990436;28;20126;-66
2022/07/27 09:22:54;;;;;;;4.47;1.30;;;;;;;18.31;58.81;102033.47;4987606;28;20026;-65
2022/07/27 09:25:24;;;;;;;6.07;2.00;;;;;;;18.30;57.27;102041.38;4989639;28;20066;-65
2022/07/27 09:27:55;;;;;;;4.00;1.50;;;;;;;18.26;57.56;102043.06;4988915;28;20037;-66
2022/07/27 09:30:20;;;;;;;3.55;1.35;;;;;;;18.24;56.29;102044.81;4990499;28;20582;-65
2022/07/27 09:32:51;;;;;;;5.38;1.77;;;;;;;18.24;58.17;102048.31;4990067;28;20481;-66
2022/07/27 09:35:20;;;;;;;5.80;1.73;;;;;;;18.30;56.41;102036.97;4990621;28;20034;-66
2022/07/27 09:37:46;;;;;;;4.53;1.50;;;;;;;18.36;55.46;102033.50;4990174;28;20028;-65
2022/07/27 09:40:20;;;;;;;5.38;1.40;;;;;;;18.43;55.83;102030.06;4990884;28;20054;-66
2022/07/27 09:42:45;;;;;;;3.25;1.27;;;;;;;18.52;56.71;102040.69;4991083;28;20052;-66
2022/07/27 09:45:34;;;;;;;5.60;1.52;;;;;;;18.61;57.59;102029.38;4989911;28;20485;-66
2022/07/27 09:48:17;;;;;;;5.35;1.50;;;;;;;18.68;57.21;102035.56;4986798;28;20045;-66
2022/07/27 09:50:58;;;;;;;4.15;1.38;;;;;;;18.79;57.07;102035.69;4990670;28;20501;-66
2022/07/27 09:53:26;;;;;;;4.30;1.60;;;;;;;18.91;56.48;102039.31;4990164;28;20438;-66
2022/07/27 09:55:56;;;;;;;3.28;1.40;;;;;;;18.95;52.03;102034.97;4989160;28;20053;-66
2022/07/27 09:58:38;;;;;;;5.90;1.70;;;;;;;19.01;57.90;102021.78;4991040;28;20109;-66
2022/07/27 10:01:03;;;;;;;4.28;1.75;;;;;;;19.10;58.88;102044.75;4990616;28;20097;-66
2022/07/27 10:03:30;;;;;;;5.30;1.92;;;;;;;19.10;58.13;102032.44;4989072;28;20030;-66
2022/07/27 10:05:55;;;;;;;4.93;1.63;;;;;;;19.08;59.10;102036.81;4990626;28;20445;-66
2022/07/27 10:08:21;;;;;;;4.13;1.55;;;;;;;19.08;59.60;102035.94;4990599;28;20573;-66
2022/07/27 10:10:47;;;;;;;5.18;1.70;;;;;;;19.06;58.27;102040.31;4989680;28;20038;-66
2022/07/27 10:13:12;;;;;;;5.57;1.38;;;;;;;19.06;57.97;102037.66;4990456;28;20034;-66
2022/07/27 10:15:40;;;;;;;3.88;1.50;;;;;;;19.02;57.87;102036.78;4990656;28;20022;-66
2022/07/27 10:18:14;;;;;;;3.55;1.30;;;;;;;19.00;57.67;102042.91;4990348;28;20093;-66
2022/07/27 10:20:41;;;;;;;5.00;1.67;;;;;;;19.00;59.16;102033.25;4989600;28;20022;-66
2022/07/27 10:23:07;;;;;;;4.05;1.52;;;;;;;18.96;58.93;102025.25;4977451;28;20037;-66
2022/07/27 10:25:33;;;;;;;5.75;1.75;;;;;;;18.96;59.76;102027.91;4989831;28;20044;-66
2022/07/27 10:28:15;;;;;;;6.13;1.60;;;;;;;18.98;58.21;102029.69;4990577;28;20105;-66
2022/07/27 10:30:41;;;;;;;3.10;1.52;;;;;;;19.06;58.47;102021.81;4989329;28;20557;-66
2022/07/27 10:33:14;;;;;;;4.03;1.80;;;;;;;19.15;57.38;102021.91;4988489;28;20156;-66
2022/07/27 10:35:40;;;;;;;5.25;1.70;;;;;;;19.25;56.26;102018.44;4989845;28;20030;-66
2022/07/27 10:38:10;;;;;;;3.45;1.60;;;;;;;19.37;55.79;102008.81;4990427;28;20041;-66
2022/07/27 10:40:37;;;;;;;7.20;2.00;;;;;;;19.38;52.76;102010.56;4989940;28;20085;-66
2022/07/27 10:43:20;;;;;;;6.88;1.70;;;;;;;19.47;55.64;102015.94;4989175;28;20253;-66
2022/07/27 10:45:48;;;;;;;4.03;1.40;;;;;;;19.51;56.57;102015.06;4990152;28;20555;-66
2022/07/27 10:48:40;;;;;;;4.03;1.45;;;;;;;19.58;56.90;102018.63;4990319;28;20038;-66
2022/07/27 10:51:09;;;;;;;4.45;1.55;;;;;;;19.55;56.59;102024.78;4989217;28;20410;-66
2022/07/27 10:53:37;;;;;;;5.82;1.60;;;;;;;19.61;56.93;102014.25;4989310;28;20031;-66
2022/07/27 10:56:05;;;;;;;5.25;1.70;;;;;;;19.70;57.76;102007.25;4989163;28;20030;-66
2022/07/27 10:58:30;;;;;;;4.47;1.73;;;;;;;19.74;56.23;102011.63;4989938;28;20034;-66
2022/07/27 11:01:01;;;;;;;4.25;1.40;;;;;;;19.72;55.48;102011.63;4989205;28;20031;-66
2022/07/27 11:03:31;;;;;;;4.53;1.60;;;;;;;19.67;54.51;102000.16;4989444;28;20042;-66
2022/07/27 11:05:58;;;;;;;5.43;2.00;;;;;;;19.64;54.23;102006.31;4989693;28;20104;-66
2022/07/27 11:08:25;;;;;;;5.40;1.70;;;;;;;19.59;55.23;102002.75;4989119;28;20026;-66
2022/07/27 11:10:51;;;;;;;5.80;1.75;;;;;;;19.59;56.67;102010.69;4988046;28;20041;-66
2022/07/27 11:13:20;;;;;;;4.38;1.55;;;;;;;19.58;57.87;102014.22;4984874;28;20030;-66
2022/07/27 11:15:53;;;;;;;4.88;1.40;;;;;;;19.57;56.63;102012.44;4989359;28;20437;-66
2022/07/27 11:18:24;;;;;;;5.97;1.55;;;;;;;19.56;55.83;102015.97;4992628;28;20033;-66
2022/07/27 11:20:49;;;;;;;3.80;1.50;;;;;;;19.55;56.63;102014.22;4992792;28;20037;-66
2022/07/27 11:23:19;;;;;;;4.13;1.50;;;;;;;19.54;56.91;102009.81;4991089;28;20034;-66
2022/07/27 11:26:00;;;;;;;5.80;2.10;;;;;;;19.53;55.54;102008.03;4992639;28;20045;-66
2022/07/27 11:28:30;;;;;;;5.85;1.45;;;;;;;19.55;56.70;102010.66;4992945;28;20029;-66